createdAt,value
2019-03-06T00:05:36.864Z,20.20
2019-03-06T00:32:41.803Z,20.20
2019-03-06T00:46:04.889Z,20.20
2019-03-06T00:59:27.405Z,20.20
2019-03-06T01:12:50.239Z,20.20
2019-03-06T01:26:13.015Z,20.20
2019-03-06T02:05:44.266Z,20.20
2019-03-06T02:18:51.631Z,20.20
2019-03-06T02:31:59.024Z,20.20
2019-03-06T02:45:06.380Z,20.20
2019-03-06T02:58:13.702Z,20.20
2019-03-06T03:11:37.242Z,20.20
2019-03-06T03:25:00.158Z,20.20
2019-03-06T03:38:22.951Z,20.20
2019-03-06T03:51:45.697Z,20.20
2019-03-06T04:05:08.526Z,20.20
2019-03-06T04:18:31.350Z,20.20
2019-03-06T04:31:54.115Z,20.20
2019-03-06T04:58:18.639Z,20.20
2019-03-06T05:11:25.963Z,20.30
2019-03-06T05:24:33.296Z,20.20
2019-03-06T05:37:40.676Z,20.20
2019-03-06T05:50:48.108Z,20.20
2019-03-06T06:04:11.932Z,20.20
2019-03-06T06:30:36.516Z,20.20
2019-03-06T06:43:43.879Z,20.10
2019-03-06T06:56:51.255Z,19.00
2019-03-06T07:09:58.626Z,18.50
2019-03-06T07:23:05.953Z,19.20
2019-03-06T07:49:31.421Z,20.00
2019-03-06T08:02:38.829Z,20.10
2019-03-06T08:15:46.192Z,20.10
2019-03-06T08:28:53.545Z,20.10
2019-03-06T08:42:00.908Z,20.10
2019-03-06T08:55:24.723Z,20.00
2019-03-06T09:08:47.570Z,19.80
2019-03-06T09:22:10.377Z,19.60
2019-03-06T09:35:33.109Z,19.60
2019-03-06T10:02:06.193Z,19.40
2019-03-06T10:15:05.043Z,19.40
2019-03-06T10:28:12.352Z,19.40
2019-03-06T10:41:19.747Z,19.40
2019-03-06T10:54:27.117Z,19.30
2019-03-06T11:07:50.910Z,19.30
2019-03-06T11:21:13.734Z,19.40
2019-03-06T11:34:36.678Z,19.40
2019-03-06T11:47:59.457Z,19.60
2019-03-06T12:01:22.278Z,20.00
2019-03-06T12:14:45.033Z,20.20
2019-03-06T12:28:07.856Z,20.30
2019-03-06T12:41:31.364Z,20.30
2019-03-06T12:54:53.518Z,20.30
2019-03-06T13:08:19.502Z,20.30
2019-03-06T13:21:39.131Z,20.20
2019-03-06T13:35:01.932Z,20.20
2019-03-06T13:48:24.730Z,20.20
2019-03-06T14:01:47.526Z,20.20
2019-03-06T14:15:10.364Z,20.30
2019-03-06T14:28:33.176Z,20.30
2019-03-06T14:41:55.971Z,20.20
2019-03-06T14:55:18.843Z,20.20
2019-03-06T15:08:41.616Z,20.30
2019-03-06T15:22:04.545Z,20.30
2019-03-06T15:35:27.280Z,20.40
2019-03-06T15:48:50.081Z,20.30
2019-03-06T16:02:12.949Z,20.40
2019-03-06T16:15:35.691Z,20.20
2019-03-06T16:28:58.576Z,20.10
2019-03-06T16:42:21.367Z,20.20
2019-03-06T16:55:45.001Z,20.20
2019-03-06T17:09:06.993Z,20.10
2019-03-06T17:22:29.836Z,20.10
2019-03-06T17:48:54.443Z,19.90
2019-03-06T18:02:01.931Z,20.00
2019-03-06T18:15:09.331Z,20.00
2019-03-06T18:28:16.742Z,19.80
2019-03-06T18:54:42.999Z,19.70
2019-03-06T19:07:50.538Z,19.70
2019-03-06T19:20:57.971Z,19.60
2019-03-06T19:34:05.446Z,19.70
2019-03-06T19:47:29.866Z,19.80
2019-03-06T20:00:52.564Z,19.80
2019-03-06T20:14:15.452Z,19.80
2019-03-06T20:27:38.167Z,19.80
2019-03-06T20:41:00.990Z,19.80
2019-03-06T20:54:23.908Z,19.80
2019-03-06T21:07:46.704Z,19.80
2019-03-06T21:21:09.443Z,19.80
2019-03-06T21:34:32.488Z,19.80
2019-03-06T21:47:57.481Z,19.90
2019-03-06T22:14:21.030Z,20.00
2019-03-06T22:27:27.148Z,20.00
2019-03-06T22:40:34.486Z,20.00
2019-03-06T22:53:41.911Z,20.10
2019-03-06T23:06:49.350Z,20.00
2019-03-06T23:20:12.901Z,20.00
2019-03-06T23:33:35.638Z,20.10
2019-03-06T23:46:58.500Z,20.10
